Time;durP1;ratioP1;P1;durP2;ratioP2;P2;SDS_P1;SDS_P2;PMS_P1;PMS_P2;Temp;Humidity;BMP_temperature;BMP_pressure;BME280_temperature;BME280_humidity;BME280_pressure;Samples;Min_cycle;Max_cycle;Signal;HPM_P1;HPM_P2
2023/09/30 00:01:44;;;;;;;9.60;3.22;;;12.70;99.90;;;;;;5016061;28;20048;-71
2023/09/30 00:04:10;;;;;;;10.60;3.17;;;12.70;99.90;;;;;;5012450;28;20364;-71
2023/09/30 00:06:35;;;;;;;11.00;3.30;;;12.70;99.90;;;;;;5014535;28;20123;-70
2023/09/30 00:09:02;;;;;;;5.68;2.30;;;12.70;99.90;;;;;;5010138;28;20026;-69
2023/09/30 00:11:27;;;;;;;13.85;3.75;;;12.70;99.90;;;;;;5012924;28;20457;-69
2023/09/30 00:13:53;;;;;;;8.93;3.28;;;12.70;99.90;;;;;;5007791;28;20034;-70
2023/09/30 00:16:18;;;;;;;7.03;2.05;;;12.70;99.90;;;;;;5010464;28;20113;-70
2023/09/30 00:18:44;;;;;;;8.85;2.70;;;12.60;99.90;;;;;;5007926;28;20049;-70
2023/09/30 00:21:11;;;;;;;5.53;2.42;;;12.60;99.90;;;;;;5014035;28;20693;-70
2023/09/30 00:23:37;;;;;;;8.27;2.95;;;12.60;99.90;;;;;;5008981;28;20117;-70
2023/09/30 00:26:02;;;;;;;9.40;3.17;;;12.60;99.90;;;;;;5017299;28;20549;-70
2023/09/30 00:28:28;;;;;;;8.32;3.17;;;12.60;99.90;;;;;;5014389;28;20026;-71
2023/09/30 00:30:54;;;;;;;13.90;3.20;;;12.60;99.90;;;;;;5013466;28;20036;-70
2023/09/30 00:33:19;;;;;;;10.15;3.00;;;12.60;99.90;;;;;;5014062;28;20120;-70
2023/09/30 00:35:46;;;;;;;9.93;3.45;;;12.60;99.90;;;;;;5008897;28;21285;-70
2023/09/30 00:38:11;;;;;;;7.88;2.50;;;12.60;99.90;;;;;;5012396;28;20767;-71
2023/09/30 00:40:37;;;;;;;7.40;3.10;;;12.60;99.90;;;;;;5006783;28;20049;-70
2023/09/30 00:43:03;;;;;;;11.40;3.30;;;12.60;99.90;;;;;;5010505;28;20034;-70
2023/09/30 00:45:29;;;;;;;7.72;2.80;;;12.70;99.90;;;;;;5010320;28;20038;-70
2023/09/30 00:47:55;;;;;;;9.75;4.35;;;12.70;99.90;;;;;;5008907;28;20061;-70
2023/09/30 00:50:21;;;;;;;7.45;3.20;;;12.70;99.90;;;;;;5015038;28;20053;-71
2023/09/30 00:52:48;;;;;;;9.05;3.17;;;12.70;99.90;;;;;;5013891;28;20048;-70
2023/09/30 00:55:15;;;;;;;9.73;3.00;;;12.70;99.90;;;;;;5014688;28;20037;-69
2023/09/30 00:57:41;;;;;;;11.20;3.17;;;12.70;99.90;;;;;;5010194;28;20083;-69
2023/09/30 01:00:11;;;;;;;6.93;2.88;;;12.60;99.90;;;;;;5018616;28;20037;-72
2023/09/30 01:02:39;;;;;;;8.55;2.55;;;12.60;99.90;;;;;;5010224;28;20497;-71
2023/09/30 01:05:04;;;;;;;6.72;3.33;;;12.60;99.90;;;;;;5011143;28;20189;-70
2023/09/30 01:07:30;;;;;;;10.75;3.53;;;12.50;99.90;;;;;;5013722;28;20112;-70
2023/09/30 01:09:56;;;;;;;8.35;3.42;;;12.50;99.90;;;;;;5010376;28;20069;-71
2023/09/30 01:12:21;;;;;;;7.93;3.40;;;12.50;99.90;;;;;;5033139;28;20049;-70
2023/09/30 01:14:47;;;;;;;9.93;3.38;;;12.40;99.90;;;;;;5010939;28;20044;-70
2023/09/30 01:17:15;;;;;;;8.45;3.35;;;12.40;99.90;;;;;;5014945;28;20050;-71
2023/09/30 01:19:42;;;;;;;12.05;3.70;;;12.40;99.90;;;;;;5004153;28;20678;-71
2023/09/30 01:22:09;;;;;;;9.45;3.65;;;12.40;99.90;;;;;;5015557;28;20053;-70
2023/09/30 01:24:42;;;;;;;9.57;3.50;;;12.40;99.90;;;;;;5005923;28;20029;-70
2023/09/30 01:27:08;;;;;;;7.47;3.13;;;12.50;99.90;;;;;;5006406;28;20042;-69
2023/09/30 01:29:34;;;;;;;9.07;3.42;;;12.50;99.90;;;;;;5008507;28;20486;-71
2023/09/30 01:32:01;;;;;;;11.35;4.43;;;12.50;99.90;;;;;;5007938;28;20026;-70
2023/09/30 01:34:27;;;;;;;7.03;3.33;;;12.50;99.90;;;;;;5013767;28;20076;-70
2023/09/30 01:36:53;;;;;;;11.70;4.30;;;12.50;99.90;;;;;;5020969;28;20622;-70
2023/09/30 01:39:18;;;;;;;11.30;4.65;;;12.40;99.90;;;;;;5012069;28;20059;-70
2023/09/30 01:41:45;;;;;;;10.63;3.88;;;12.40;99.90;;;;;;5011695;28;20092;-70
2023/09/30 07:07:24;;;;;;;;;;;13.00;99.90;;;;;;4997139;28;20045;-71
2023/09/30 07:09:50;;;;;;;14.13;5.57;;;13.10;99.90;;;;;;4988008;28;19921;-71
2023/09/30 07:12:15;;;;;;;12.00;5.72;;;13.20;99.90;;;;;;5007944;28;20033;-70
2023/09/30 07:14:41;;;;;;;11.88;5.55;;;13.20;99.90;;;;;;5000024;28;20049;-70
2023/09/30 07:17:07;;;;;;;18.90;6.07;;;13.30;99.90;;;;;;5021122;28;20093;-70
2023/09/30 07:19:33;;;;;;;14.75;6.20;;;13.30;99.90;;;;;;4984605;28;20586;-71
2023/09/30 07:21:58;;;;;;;11.40;5.75;;;13.40;99.90;;;;;;5005521;28;20038;-71
2023/09/30 07:24:24;;;;;;;15.98;6.07;;;13.40;99.90;;;;;;4985531;28;20501;-70
2023/09/30 07:26:49;;;;;;;16.20;5.57;;;13.50;99.90;;;;;;5018186;28;20037;-70
2023/09/30 07:29:15;;;;;;;12.85;6.30;;;13.60;99.90;;;;;;5000521;28;20358;-71
2023/09/30 07:31:40;;;;;;;17.35;5.78;;;13.70;99.90;;;;;;5003115;28;20038;-71
2023/09/30 07:34:06;;;;;;;19.95;6.35;;;13.80;99.90;;;;;;4986604;28;20038;-71
2023/09/30 07:36:32;;;;;;;14.00;6.50;;;13.90;99.90;;;;;;4982377;28;20030;-75
2023/09/30 07:38:57;;;;;;;13.75;6.22;;;14.00;99.90;;;;;;4986639;28;20049;-71
2023/09/30 07:41:23;;;;;;;20.35;6.70;;;14.10;99.90;;;;;;4988358;28;20030;-70
2023/09/30 07:43:49;;;;;;;14.68;6.00;;;14.20;99.90;;;;;;5003104;28;20043;-71
2023/09/30 07:46:15;;;;;;;12.77;5.63;;;14.40;99.90;;;;;;4986097;28;20068;-71
2023/09/30 07:48:41;;;;;;;14.05;6.05;;;14.50;99.90;;;;;;4974694;28;20038;-71
2023/09/30 07:51:10;;;;;;;14.13;6.22;;;14.70;99.90;;;;;;4979042;28;20034;-70
2023/09/30 07:53:35;;;;;;;13.48;5.43;;;14.90;99.90;;;;;;4999252;28;20026;-73
2023/09/30 07:56:01;;;;;;;16.30;6.20;;;15.10;99.90;;;;;;4989013;28;20050;-71
2023/09/30 07:58:27;;;;;;;15.73;5.97;;;15.40;99.90;;;;;;4999067;28;20045;-70
2023/09/30 08:00:53;;;;;;;12.88;5.85;;;15.60;99.90;;;;;;4997075;28;20046;-72
2023/09/30 08:03:18;;;;;;;12.18;5.20;;;15.80;99.90;;;;;;4978730;28;20089;-71
2023/09/30 08:05:46;;;;;;;16.48;5.60;;;15.80;99.90;;;;;;4999508;28;20037;-70
2023/09/30 08:08:12;;;;;;;10.90;4.45;;;15.90;99.90;;;;;;5001180;28;20048;-70
2023/09/30 08:10:37;;;;;;;10.52;4.22;;;15.90;99.90;;;;;;4985406;28;20140;-72
2023/09/30 08:13:03;;;;;;;9.00;4.35;;;15.90;99.90;;;;;;4999201;28;20481;-70
2023/09/30 08:15:30;;;;;;;15.05;4.88;;;15.90;99.90;;;;;;4995919;28;20116;-71
2023/09/30 08:17:55;;;;;;;9.50;4.53;;;15.90;99.90;;;;;;4983389;28;20030;-72
2023/09/30 08:20:21;;;;;;;14.00;5.13;;;15.90;99.90;;;;;;4996439;28;20138;-72
2023/09/30 08:22:46;;;;;;;12.25;4.57;;;15.90;99.90;;;;;;5020617;28;20049;-72
2023/09/30 08:25:12;;;;;;;14.50;4.45;;;15.90;99.90;;;;;;4983861;28;20061;-69
2023/09/30 08:27:41;;;;;;;10.93;4.30;;;16.00;99.90;;;;;;5006496;28;20111;-70
2023/09/30 08:30:07;;;;;;;11.13;4.38;;;16.00;99.90;;;;;;5007721;28;20041;-71
2023/09/30 08:32:36;;;;;;;8.75;4.47;;;16.00;99.90;;;;;;5009038;28;20037;-70
2023/09/30 08:35:03;;;;;;;12.48;5.05;;;16.10;99.90;;;;;;5010477;28;20040;-70
2023/09/30 08:37:29;;;;;;;12.30;5.05;;;16.20;99.90;;;;;;5007286;28;20034;-70
2023/09/30 08:39:55;;;;;;;11.90;4.90;;;16.40;99.90;;;;;;4987671;28;20092;-73
2023/09/30 08:42:24;;;;;;;15.30;4.13;;;16.60;99.90;;;;;;5007665;28;20041;-70
2023/09/30 08:44:53;;;;;;;11.13;4.32;;;16.60;99.90;;;;;;4985616;28;20061;-71
2023/09/30 08:47:20;;;;;;;12.00;4.88;;;16.60;99.90;;;;;;5008744;28;20037;-70
2023/09/30 08:49:48;;;;;;;10.00;3.80;;;16.70;99.90;;;;;;4987498;28;20051;-73
2023/09/30 08:52:14;;;;;;;9.13;3.45;;;16.70;99.90;;;;;;4987922;28;20045;-71
2023/09/30 08:54:40;;;;;;;8.82;3.78;;;16.70;99.90;;;;;;5004402;28;20030;-72
2023/09/30 08:57:09;;;;;;;7.95;3.85;;;16.80;99.90;;;;;;5004674;28;20383;-71
2023/09/30 08:59:38;;;;;;;10.30;3.75;;;16.80;99.90;;;;;;5004505;28;20046;-72
2023/09/30 09:02:09;;;;;;;9.73;4.13;;;16.90;99.90;;;;;;4984636;28;20101;-70
2023/09/30 09:04:36;;;;;;;9.50;4.32;;;16.90;99.90;;;;;;5002508;28;20078;-71
2023/09/30 09:07:01;;;;;;;7.38;3.15;;;17.00;99.90;;;;;;4985895;28;20053;-72
2023/09/30 09:09:27;;;;;;;11.05;3.33;;;17.00;99.90;;;;;;4986684;28;20038;-70
2023/09/30 09:11:53;;;;;;;8.73;3.55;;;17.10;99.90;;;;;;5001008;28;20152;-72
2023/09/30 09:14:18;;;;;;;8.43;3.67;;;17.20;99.90;;;;;;4982976;28;20056;-72
2023/09/30 09:16:54;;;;;;;14.52;3.35;;;17.20;99.90;;;;;;4995731;28;20430;-71
2023/09/30 09:19:21;;;;;;;8.38;3.72;;;17.30;99.90;;;;;;4978745;28;20553;-71
2023/09/30 09:22:07;;;;;;;8.70;3.40;;;17.40;99.90;;;;;;5001964;28;20068;-73
2023/09/30 09:24:39;;;;;;;10.90;3.33;;;17.50;99.90;;;;;;4998069;28;20042;-71
2023/09/30 09:27:17;;;;;;;11.02;3.45;;;17.50;99.90;;;;;;4995646;28;20034;-73
2023/09/30 09:29:44;;;;;;;9.43;2.60;;;17.60;99.90;;;;;;4991517;28;20050;-71
2023/09/30 09:32:11;;;;;;;11.57;3.92;;;17.60;99.90;;;;;;4993788;28;20058;-71
2023/09/30 09:34:37;;;;;;;8.57;2.90;;;17.60;99.90;;;;;;4994028;28;20117;-71
2023/09/30 09:37:13;;;;;;;9.77;3.33;;;17.60;99.90;;;;;;4997002;28;20037;-71
2023/09/30 09:39:39;;;;;;;12.57;3.45;;;17.50;99.90;;;;;;4976963;28;20042;-70
2023/09/30 09:42:06;;;;;;;8.85;3.33;;;17.50;99.90;;;;;;4996928;28;20068;-71
2023/09/30 09:44:36;;;;;;;12.23;3.30;;;17.50;99.90;;;;;;4980139;28;20057;-73
2023/09/30 09:47:05;;;;;;;8.95;3.13;;;17.60;99.90;;;;;;4993412;28;20037;-71
2023/09/30 09:49:32;;;;;;;8.83;3.10;;;17.70;99.90;;;;;;4976477;28;20033;-69
2023/09/30 09:52:00;;;;;;;7.30;2.88;;;17.80;99.90;;;;;;4978734;28;20426;-71
2023/09/30 09:54:26;;;;;;;8.77;3.65;;;17.90;99.90;;;;;;4994520;28;20039;-71
2023/09/30 09:56:56;;;;;;;12.02;3.40;;;17.90;99.90;;;;;;4996590;28;20934;-69
2023/09/30 09:59:23;;;;;;;8.13;2.53;;;18.00;99.90;;;;;;4995980;28;20042;-71
2023/09/30 10:01:49;;;;;;;5.68;2.80;;;18.00;99.90;;;;;;4976798;28;20059;-72
2023/09/30 10:04:15;;;;;;;11.60;3.20;;;18.00;99.90;;;;;;4982917;28;20178;-71
2023/09/30 10:06:44;;;;;;;7.20;3.00;;;18.10;99.90;;;;;;4996839;28;20035;-71
2023/09/30 10:09:12;;;;;;;7.47;2.60;;;18.10;99.90;;;;;;4975817;28;20034;-70
2023/09/30 10:11:41;;;;;;;9.32;2.65;;;18.10;99.90;;;;;;4996302;28;20092;-72
2023/09/30 10:14:14;;;;;;;7.73;2.50;;;18.10;99.90;;;;;;4997843;28;20104;-72
2023/09/30 10:16:42;;;;;;;5.95;2.53;;;18.20;99.90;;;;;;4982237;28;20120;-72
2023/09/30 10:19:10;;;;;;;6.95;2.92;;;18.20;99.90;;;;;;4979719;28;20062;-72
2023/09/30 10:21:36;;;;;;;7.05;2.42;;;18.30;99.90;;;;;;4981891;28;20049;-70
2023/09/30 10:24:23;;;;;;;6.80;2.20;;;18.30;99.90;;;;;;4996815;28;20023;-69
2023/09/30 10:27:28;;;;;;;7.13;3.03;;;18.30;99.90;;;;;;4975160;28;20247;-71
2023/09/30 10:30:09;;;;;;;12.45;3.35;;;18.30;99.90;;;;;;4980671;28;20558;-71
2023/09/30 10:32:50;;;;;;;7.93;2.50;;;18.40;99.90;;;;;;4978085;28;20047;-70
2023/09/30 10:35:20;;;;;;;10.10;2.53;;;18.40;99.90;;;;;;4981080;28;20054;-69
2023/09/30 10:37:48;;;;;;;6.75;1.75;;;18.40;99.90;;;;;;5002030;28;20030;-70
2023/09/30 10:40:30;;;;;;;8.63;1.73;;;18.40;99.90;;;;;;5000562;28;20041;-71
2023/09/30 10:42:57;;;;;;;9.07;2.33;;;18.50;99.90;;;;;;4996263;28;20042;-71
2023/09/30 10:45:46;;;;;;;9.07;2.35;;;18.50;99.90;;;;;;4997140;28;20695;-73
2023/09/30 10:48:33;;;;;;;7.33;2.50;;;18.60;99.90;;;;;;4996570;28;20045;-70
2023/09/30 10:51:11;;;;;;;5.20;1.55;;;18.70;99.90;;;;;;4996355;28;20038;-70
2023/09/30 10:53:43;;;;;;;3.65;1.27;;;18.70;99.90;;;;;;4981102;28;20048;-70
2023/09/30 10:56:09;;;;;;;7.80;1.90;;;18.90;99.90;;;;;;4997941;28;20699;-69
2023/09/30 10:58:51;;;;;;;9.38;1.70;;;19.00;99.90;;;;;;4982508;28;20109;-70
2023/09/30 11:01:33;;;;;;;9.32;1.60;;;19.10;99.90;;;;;;4983123;28;20125;-71
2023/09/30 11:04:03;;;;;;;7.78;1.40;;;19.20;99.90;;;;;;5008694;28;20046;-71
2023/09/30 11:06:29;;;;;;;9.65;1.58;;;19.30;99.90;;;;;;4979892;28;20034;-71
2023/09/30 11:08:58;;;;;;;5.57;1.55;;;19.40;99.90;;;;;;4994137;28;20038;-70
2023/09/30 11:11:48;;;;;;;6.20;1.25;;;19.60;99.90;;;;;;5000173;28;20033;-72
2023/09/30 11:14:28;;;;;;;9.27;1.50;;;19.70;99.90;;;;;;4999800;28;20038;-70
2023/09/30 11:16:56;;;;;;;9.00;2.50;;;19.70;99.90;;;;;;5005053;28;20034;-71
2023/09/30 11:19:23;;;;;;;11.00;1.27;;;19.80;99.90;;;;;;4997720;28;20129;-69
2023/09/30 11:21:51;;;;;;;6.78;1.02;;;19.80;99.90;;;;;;5006907;28;20099;-70
2023/09/30 11:24:17;;;;;;;7.05;1.13;;;19.90;99.90;;;;;;4996105;28;20034;-69
2023/09/30 11:26:44;;;;;;;11.65;1.50;;;19.90;99.90;;;;;;4976502;28;20039;-72
2023/09/30 11:29:11;;;;;;;9.68;1.65;;;19.90;99.90;;;;;;4997822;28;20451;-69
2023/09/30 11:31:40;;;;;;;9.65;1.80;;;19.80;99.90;;;;;;4996953;28;20504;-70
2023/09/30 11:34:07;;;;;;;6.30;1.37;;;19.80;99.90;;;;;;4997047;28;20042;-69
2023/09/30 11:36:54;;;;;;;6.00;0.95;;;19.80;99.90;;;;;;4998902;28;20092;-71
2023/09/30 11:39:27;;;;;;;4.85;1.10;;;19.80;99.90;;;;;;4998328;28;20394;-70
2023/09/30 11:41:55;;;;;;;5.45;1.10;;;19.60;99.90;;;;;;4976778;28;20046;-72
2023/09/30 11:44:21;;;;;;;4.72;0.77;;;19.60;99.90;;;;;;4982474;28;20061;-71
2023/09/30 11:46:55;;;;;;;5.30;0.70;;;19.60;99.90;;;;;;4979476;28;20038;-71
2023/09/30 11:49:40;;;;;;;4.63;0.80;;;19.60;99.90;;;;;;4996027;28;20060;-70
2023/09/30 11:52:10;;;;;;;5.05;0.95;;;19.70;99.90;;;;;;4996189;28;20068;-72
2023/09/30 11:54:46;;;;;;;5.20;1.30;;;19.60;99.90;;;;;;4997682;28;20092;-70
2023/09/30 11:57:16;;;;;;;3.25;1.00;;;19.60;99.90;;;;;;4982929;28;20501;-70
2023/09/30 11:59:43;;;;;;;5.45;1.00;;;19.50;99.90;;;;;;4998734;28;20041;-70
2023/09/30 12:02:09;;;;;;;3.58;1.05;;;19.50;99.90;;;;;;4997125;28;20112;-70
2023/09/30 12:04:36;;;;;;;8.45;1.58;;;19.40;99.90;;;;;;4996652;28;20054;-72
2023/09/30 12:07:02;;;;;;;4.78;1.23;;;19.30;99.90;;;;;;4980654;28;20034;-70
2023/09/30 12:09:28;;;;;;;6.45;1.60;;;19.20;99.90;;;;;;4996497;28;20376;-70
2023/09/30 12:11:54;;;;;;;9.13;1.23;;;19.10;99.90;;;;;;4998701;28;20521;-71
2023/09/30 12:14:23;;;;;;;4.80;1.38;;;19.20;99.90;;;;;;4988814;28;20587;-70
2023/09/30 12:16:50;;;;;;;4.60;1.58;;;19.30;99.90;;;;;;5000590;28;20045;-70
2023/09/30 12:19:20;;;;;;;4.55;1.00;;;19.40;99.90;;;;;;4979137;28;20113;-70
2023/09/30 12:21:47;;;;;;;3.33;0.90;;;19.40;99.90;;;;;;4985550;28;20460;-70
2023/09/30 12:24:19;;;;;;;4.72;0.80;;;19.50;99.90;;;;;;4980307;28;20041;-70
2023/09/30 12:26:48;;;;;;;4.15;0.90;;;19.60;99.90;;;;;;4978653;28;20044;-69
2023/09/30 12:29:19;;;;;;;8.10;1.10;;;19.60;99.90;;;;;;4997774;28;20100;-70
2023/09/30 12:31:44;;;;;;;;;;;19.60;99.90;;;;;;4979737;28;20092;-70
2023/09/30 12:34:11;;;;;;;5.30;1.20;;;19.50;99.90;;;;;;4995620;28;19914;-69
2023/09/30 12:36:36;;;;;;;5.45;0.85;;;19.50;99.90;;;;;;4995857;28;20026;-71
2023/09/30 12:39:10;;;;;;;8.65;1.25;;;19.40;99.90;;;;;;4985483;28;20751;-71
2023/09/30 12:41:40;;;;;;;4.90;1.08;;;19.40;99.90;;;;;;4979554;28;20417;-72
2023/09/30 12:44:09;;;;;;;6.60;1.58;;;19.30;99.90;;;;;;4977856;28;20030;-71
2023/09/30 12:46:36;;;;;;;7.28;1.45;;;19.30;99.90;;;;;;4982828;28;20368;-71
2023/09/30 12:49:03;;;;;;;7.68;1.23;;;19.10;99.90;;;;;;5006371;28;20025;-70
2023/09/30 12:51:29;;;;;;;6.68;1.42;;;19.00;99.90;;;;;;4989170;28;20139;-71
2023/09/30 12:53:54;;;;;;;6.38;1.10;;;19.00;99.90;;;;;;4991178;28;20117;-70
2023/09/30 12:56:20;;;;;;;6.75;1.05;;;19.00;99.90;;;;;;4988838;28;20125;-70
2023/09/30 12:58:47;;;;;;;7.47;1.52;;;19.00;99.90;;;;;;4997744;28;20038;-70
2023/09/30 13:01:12;;;;;;;3.47;1.00;;;18.90;99.90;;;;;;4980703;28;20225;-70
2023/09/30 13:03:38;;;;;;;4.40;0.80;;;18.90;99.90;;;;;;4985054;28;20060;-72
2023/09/30 13:06:04;;;;;;;4.72;1.02;;;18.80;99.90;;;;;;5001724;28;20109;-71
2023/09/30 13:08:33;;;;;;;3.15;1.00;;;18.80;99.90;;;;;;4978404;28;20120;-71
2023/09/30 13:11:03;;;;;;;7.05;1.05;;;18.80;99.90;;;;;;4978261;28;20030;-71
2023/09/30 13:13:30;;;;;;;9.23;1.63;;;18.70;99.90;;;;;;4978745;28;20061;-70
2023/09/30 13:15:59;;;;;;;8.35;1.33;;;18.70;99.90;;;;;;4977088;28;20137;-70
2023/09/30 13:18:25;;;;;;;5.38;1.17;;;18.70;99.90;;;;;;4988818;28;20029;-71
2023/09/30 13:20:52;;;;;;;5.30;1.20;;;18.60;99.90;;;;;;5007667;28;20040;-71
2023/09/30 13:23:18;;;;;;;6.72;0.90;;;18.60;99.90;;;;;;4986852;28;20046;-71
2023/09/30 13:25:44;;;;;;;4.65;0.82;;;18.60;99.90;;;;;;4971112;28;20136;-70
2023/09/30 13:28:09;;;;;;;5.15;1.10;;;18.70;99.90;;;;;;4986035;28;20184;-70
2023/09/30 13:30:35;;;;;;;13.43;1.90;;;18.70;99.90;;;;;;5000405;28;20179;-71
2023/09/30 13:33:01;;;;;;;4.60;1.20;;;18.70;99.90;;;;;;5001611;28;20088;-70
2023/09/30 13:35:27;;;;;;;6.43;1.25;;;18.70;99.90;;;;;;4987015;28;20040;-71
2023/09/30 13:37:52;;;;;;;8.18;1.75;;;18.80;99.90;;;;;;4986846;28;20053;-70
2023/09/30 13:40:18;;;;;;;4.85;1.20;;;18.70;99.90;;;;;;4986511;28;20222;-71
2023/09/30 13:42:44;;;;;;;5.75;1.17;;;18.70;99.90;;;;;;4983389;28;20077;-70
2023/09/30 13:45:10;;;;;;;8.60;1.42;;;18.80;99.90;;;;;;4985893;28;20030;-71
2023/09/30 13:47:36;;;;;;;5.82;1.35;;;18.70;99.90;;;;;;5001385;28;20084;-70
2023/09/30 13:50:06;;;;;;;5.95;1.13;;;18.70;99.90;;;;;;4987626;28;20485;-70
2023/09/30 13:52:33;;;;;;;5.45;0.88;;;18.60;99.90;;;;;;5006124;28;20051;-72
2023/09/30 13:54:59;;;;;;;13.07;1.90;;;18.60;99.90;;;;;;5006023;28;20111;-71
2023/09/30 13:57:25;;;;;;;5.25;0.95;;;18.70;99.90;;;;;;5008293;28;20429;-70
2023/09/30 13:59:50;;;;;;;5.82;1.05;;;18.60;99.90;;;;;;4989633;28;20030;-70
2023/09/30 14:02:16;;;;;;;5.03;1.55;;;18.60;99.90;;;;;;4988394;28;20026;-71
2023/09/30 14:04:41;;;;;;;5.00;1.38;;;18.60;99.90;;;;;;5008301;28;20175;-70
2023/09/30 14:07:07;;;;;;;7.82;1.77;;;18.70;99.90;;;;;;4987857;28;20037;-71
2023/09/30 14:09:34;;;;;;;6.10;1.15;;;18.70;99.90;;;;;;5007115;28;20392;-71
2023/09/30 14:11:59;;;;;;;6.50;1.40;;;18.70;99.90;;;;;;4987458;28;20040;-71
2023/09/30 14:14:25;;;;;;;7.10;1.48;;;18.80;99.90;;;;;;4981636;28;20038;-71
2023/09/30 14:16:51;;;;;;;7.93;1.25;;;18.90;99.90;;;;;;4992281;28;20026;-71
2023/09/30 14:19:17;;;;;;;6.80;1.30;;;18.90;99.90;;;;;;4998326;28;20117;-71
2023/09/30 14:21:42;;;;;;;3.72;1.13;;;18.90;99.90;;;;;;5001834;28;20130;-71
2023/09/30 14:24:08;;;;;;;6.22;1.13;;;18.90;99.90;;;;;;5002135;28;20030;-70
2023/09/30 14:26:34;;;;;;;9.55;1.30;;;18.90;99.90;;;;;;5009858;28;20398;-70
2023/09/30 14:29:00;;;;;;;3.90;0.98;;;18.90;99.90;;;;;;5009144;28;20044;-71
2023/09/30 14:31:26;;;;;;;8.18;1.70;;;18.90;99.90;;;;;;4998439;28;20556;-70
2023/09/30 14:33:52;;;;;;;4.20;1.20;;;18.90;99.90;;;;;;4991373;28;20037;-71
2023/09/30 14:36:18;;;;;;;3.97;1.02;;;18.90;99.90;;;;;;4987655;28;20026;-72
2023/09/30 14:38:44;;;;;;;7.20;2.08;;;19.00;99.90;;;;;;4991479;28;20125;-70
2023/09/30 14:41:12;;;;;;;9.85;1.73;;;19.10;99.90;;;;;;5005652;28;20124;-71
2023/09/30 14:43:38;;;;;;;5.28;1.20;;;19.10;99.90;;;;;;4991480;28;20040;-72
2023/09/30 14:46:03;;;;;;;5.82;1.25;;;19.10;99.90;;;;;;4991895;28;20038;-71
2023/09/30 14:48:29;;;;;;;6.80;1.30;;;19.10;99.90;;;;;;5009485;28;20775;-70
2023/09/30 14:50:56;;;;;;;6.43;1.00;;;19.20;99.90;;;;;;5008565;28;20042;-71
2023/09/30 14:53:22;;;;;;;9.20;1.60;;;19.20;99.90;;;;;;4991706;28;20053;-71
2023/09/30 14:55:48;;;;;;;5.03;0.98;;;19.20;99.90;;;;;;4996190;28;20073;-71
2023/09/30 14:58:13;;;;;;;9.05;1.65;;;19.10;99.90;;;;;;5002775;28;20401;-71
2023/09/30 15:00:39;;;;;;;6.03;1.48;;;19.10;99.90;;;;;;4982533;28;20056;-71
2023/09/30 15:03:05;;;;;;;7.75;1.90;;;19.00;99.90;;;;;;4988301;28;20038;-72
2023/09/30 15:05:35;;;;;;;5.93;1.13;;;18.90;99.90;;;;;;4980747;28;20034;-70
2023/09/30 15:08:04;;;;;;;2.58;0.70;;;18.90;99.90;;;;;;5008539;28;20052;-71
2023/09/30 15:10:29;;;;;;;6.80;1.48;;;18.80;99.90;;;;;;4977192;28;20381;-71
2023/09/30 15:12:55;;;;;;;8.60;1.40;;;18.80;99.90;;;;;;5016374;28;20057;-71
2023/09/30 15:15:21;;;;;;;5.65;1.48;;;18.70;99.90;;;;;;5012387;28;20124;-70
2023/09/30 15:17:46;;;;;;;9.48;1.75;;;18.60;99.90;;;;;;5008425;28;20505;-71
2023/09/30 15:20:12;;;;;;;3.65;0.90;;;18.60;99.90;;;;;;4983897;28;20510;-71
2023/09/30 15:22:38;;;;;;;8.82;1.20;;;18.50;99.90;;;;;;5011855;28;20037;-71
2023/09/30 15:25:04;;;;;;;6.20;1.50;;;18.50;99.90;;;;;;4988449;28;20045;-71
2023/09/30 15:27:31;;;;;;;6.85;1.40;;;18.40;99.90;;;;;;5006993;28;20049;-71
2023/09/30 15:29:58;;;;;;;12.63;1.85;;;18.40;99.90;;;;;;4996997;28;20037;-70
2023/09/30 15:32:24;;;;;;;7.18;1.60;;;18.30;99.90;;;;;;5008956;28;20026;-70
2023/09/30 15:34:49;;;;;;;11.93;1.67;;;18.20;99.90;;;;;;5007702;28;20034;-71
2023/09/30 15:37:15;;;;;;;10.88;2.08;;;18.20;99.90;;;;;;5003161;28;20030;-71
2023/09/30 15:39:41;;;;;;;6.07;1.25;;;18.10;99.90;;;;;;4987643;28;20136;-71
2023/09/30 15:42:11;;;;;;;8.05;1.70;;;18.10;99.90;;;;;;4995443;28;20030;-71
2023/09/30 15:44:37;;;;;;;;;;;18.10;99.90;;;;;;4991110;28;20029;-71
2023/09/30 15:47:06;;;;;;;10.90;2.08;;;18.00;99.90;;;;;;4993292;28;19938;-71
2023/09/30 15:49:31;;;;;;;8.43;1.60;;;18.00;99.90;;;;;;5000304;28;20041;-71
2023/09/30 15:51:57;;;;;;;7.28;2.63;;;17.90;99.90;;;;;;5003396;28;20022;-71
2023/09/30 15:54:22;;;;;;;8.27;1.92;;;17.90;99.90;;;;;;4983093;28;20038;-70
2023/09/30 15:56:48;;;;;;;11.65;2.33;;;17.90;99.90;;;;;;5004169;28;20406;-71
2023/09/30 15:59:13;;;;;;;8.65;2.63;;;17.80;99.90;;;;;;4971655;28;20372;-72
2023/09/30 16:01:39;;;;;;;8.50;1.92;;;17.80;99.90;;;;;;4995462;28;20354;-70
2023/09/30 16:04:04;;;;;;;6.03;1.65;;;17.70;99.90;;;;;;5003493;28;20558;-70
2023/09/30 16:06:31;;;;;;;12.57;2.30;;;17.70;99.90;;;;;;4989765;28;20026;-70
2023/09/30 16:08:57;;;;;;;5.80;1.60;;;17.70;99.90;;;;;;4978470;28;20483;-71
2023/09/30 16:11:28;;;;;;;4.72;1.40;;;17.60;99.90;;;;;;4982926;28;20298;-71
2023/09/30 16:13:55;;;;;;;9.50;2.63;;;17.50;99.90;;;;;;5001117;28;20075;-70
2023/09/30 16:16:21;;;;;;;9.15;1.50;;;17.50;99.90;;;;;;4996158;28;20542;-71
2023/09/30 16:18:47;;;;;;;9.63;1.63;;;17.60;99.90;;;;;;4992294;28;20115;-72
2023/09/30 16:21:13;;;;;;;10.43;1.90;;;17.50;99.90;;;;;;4990386;28;20037;-71
2023/09/30 16:23:38;;;;;;;9.45;2.67;;;17.60;99.90;;;;;;5003883;28;20043;-72
2023/09/30 16:26:04;;;;;;;8.45;2.63;;;17.60;99.90;;;;;;4998919;28;20486;-69
2023/09/30 16:28:30;;;;;;;10.57;2.28;;;17.50;99.90;;;;;;4982285;28;20070;-70
2023/09/30 16:30:58;;;;;;;9.55;1.70;;;17.60;99.90;;;;;;5005520;28;20042;-72
2023/09/30 16:33:26;;;;;;;10.27;2.42;;;17.50;99.90;;;;;;4986198;28;20117;-70
2023/09/30 16:35:53;;;;;;;4.07;1.15;;;17.50;99.90;;;;;;5002477;28;20049;-71
2023/09/30 16:38:20;;;;;;;9.07;2.30;;;17.50;99.90;;;;;;4998765;28;20490;-71
2023/09/30 16:40:49;;;;;;;5.85;1.48;;;17.50;99.90;;;;;;4998120;28;20126;-74
2023/09/30 16:43:15;;;;;;;5.78;1.52;;;17.50;99.90;;;;;;4991349;28;20491;-71
2023/09/30 16:45:40;;;;;;;5.30;1.30;;;17.40;99.90;;;;;;4994735;28;20054;-70
2023/09/30 16:48:06;;;;;;;7.07;1.90;;;17.40;99.90;;;;;;4977673;28;20068;-70
2023/09/30 16:50:31;;;;;;;7.45;1.05;;;17.40;99.90;;;;;;4981798;28;20068;-71
2023/09/30 16:52:57;;;;;;;6.45;2.05;;;17.30;99.90;;;;;;4997592;28;20034;-70
2023/09/30 16:55:23;;;;;;;6.03;1.55;;;17.30;99.90;;;;;;4998865;28;20046;-71
2023/09/30 16:57:48;;;;;;;5.88;2.45;;;17.30;99.90;;;;;;5006001;28;20219;-71
2023/09/30 17:00:15;;;;;;;10.05;1.75;;;17.20;99.90;;;;;;5002485;28;20030;-72
2023/09/30 17:02:41;;;;;;;7.93;1.42;;;17.20;99.90;;;;;;5003607;28;20030;-72
2023/09/30 17:05:07;;;;;;;7.55;1.27;;;17.20;99.90;;;;;;4994699;28;20554;-72
2023/09/30 17:07:33;;;;;;;6.13;2.00;;;17.20;99.90;;;;;;4976884;28;20042;-71
2023/09/30 17:09:58;;;;;;;8.07;1.38;;;17.10;99.90;;;;;;5005609;28;20088;-71
2023/09/30 17:12:25;;;;;;;6.40;1.33;;;17.10;99.90;;;;;;5007003;28;20052;-71
2023/09/30 17:14:50;;;;;;;6.53;1.50;;;17.10;99.90;;;;;;4992830;28;20513;-71
2023/09/30 17:17:16;;;;;;;4.55;1.40;;;17.00;99.90;;;;;;5004208;28;20072;-70
2023/09/30 17:19:42;;;;;;;7.63;1.33;;;16.90;99.90;;;;;;4989186;28;20042;-71
2023/09/30 17:22:10;;;;;;;7.47;1.75;;;16.90;99.90;;;;;;4988614;28;20033;-71
2023/09/30 17:24:36;;;;;;;8.70;1.65;;;16.80;99.90;;;;;;5005758;28;20030;-71
2023/09/30 17:27:01;;;;;;;13.10;1.90;;;16.80;99.90;;;;;;4988237;28;20037;-71
2023/09/30 17:29:27;;;;;;;4.90;1.17;;;16.70;99.90;;;;;;4987909;28;20026;-72
2023/09/30 17:31:53;;;;;;;5.97;1.50;;;16.60;99.90;;;;;;4986267;28;20038;-72
2023/09/30 17:34:19;;;;;;;13.20;2.05;;;16.60;99.90;;;;;;4989096;28;20072;-70
2023/09/30 17:36:44;;;;;;;7.30;1.60;;;16.50;99.90;;;;;;5002538;28;20038;-72
2023/09/30 17:39:11;;;;;;;7.47;1.52;;;16.50;99.90;;;;;;4970708;28;20284;-71
2023/09/30 17:41:36;;;;;;;6.72;1.70;;;16.50;99.90;;;;;;4994520;28;20031;-75
2023/09/30 17:44:02;;;;;;;7.18;1.92;;;16.40;99.90;;;;;;4977001;28;20510;-69
2023/09/30 17:46:27;;;;;;;8.02;1.92;;;16.40;99.90;;;;;;4998190;28;20042;-70
2023/09/30 17:48:53;;;;;;;10.25;2.42;;;16.40;99.90;;;;;;4997435;28;20076;-70
2023/09/30 17:51:22;;;;;;;10.38;2.22;;;16.40;99.90;;;;;;4977080;28;20045;-71
2023/09/30 17:53:49;;;;;;;11.43;2.25;;;16.40;99.90;;;;;;4989733;28;20043;-71
2023/09/30 17:56:20;;;;;;;10.27;2.47;;;16.40;99.90;;;;;;5000239;28;20074;-72
2023/09/30 17:58:46;;;;;;;6.75;1.45;;;16.40;99.90;;;;;;4979012;28;20042;-73
2023/09/30 18:01:19;;;;;;;8.15;1.83;;;16.30;99.90;;;;;;4984988;28;20228;-71
2023/09/30 18:03:46;;;;;;;4.85;2.00;;;16.30;99.90;;;;;;5000667;28;20072;-70
2023/09/30 18:06:12;;;;;;;6.85;2.00;;;16.30;99.90;;;;;;5001482;28;20072;-71
2023/09/30 18:08:42;;;;;;;9.05;1.88;;;16.40;99.90;;;;;;5014049;28;20140;-70
2023/09/30 18:11:09;;;;;;;8.77;1.83;;;16.30;99.90;;;;;;4998125;28;20054;-71